sensor_id;sensor_type;location;lat;lon;timestamp;P1;durP1;ratioP1;P2;durP2;ratioP2
1020;SDS011;499;42.648;23.270;2023-01-01T00:00:29;1.53;;;1.43;;
1020;SDS011;499;42.648;23.270;2023-01-01T00:02:56;3.70;;;3.00;;
1020;SDS011;499;42.648;23.270;2023-01-01T00:05:25;3.03;;;2.20;;
1020;SDS011;499;42.648;23.270;2023-01-01T00:07:52;4.30;;;2.07;;
1020;SDS011;499;42.648;23.270;2023-01-01T00:10:19;2.77;;;2.33;;
1020;SDS011;499;42.648;23.270;2023-01-01T00:12:55;3.87;;;3.50;;
1020;SDS011;499;42.648;23.270;2023-01-01T00:15:23;2.10;;;1.90;;
1020;SDS011;499;42.648;23.270;2023-01-01T00:17:50;2.90;;;1.97;;
1020;SDS011;499;42.648;23.270;2023-01-01T00:20:18;2.60;;;2.33;;
1020;SDS011;499;42.648;23.270;2023-01-01T00:22:46;2.20;;;1.67;;
1020;SDS011;499;42.648;23.270;2023-01-01T00:25:13;2.23;;;1.70;;
1020;SDS011;499;42.648;23.270;2023-01-01T00:27:42;2.00;;;1.90;;
1020;SDS011;499;42.648;23.270;2023-01-01T00:30:10;1.80;;;1.70;;
1020;SDS011;499;42.648;23.270;2023-01-01T00:32:37;1.97;;;1.80;;
1020;SDS011;499;42.648;23.270;2023-01-01T00:35:05;2.47;;;2.23;;
1020;SDS011;499;42.648;23.270;2023-01-01T00:37:33;3.40;;;2.20;;
1020;SDS011;499;42.648;23.270;2023-01-01T00:40:01;4.10;;;2.80;;
1020;SDS011;499;42.648;23.270;2023-01-01T00:42:29;2.90;;;2.30;;
1020;SDS011;499;42.648;23.270;2023-01-01T00:44:56;2.77;;;2.50;;
1020;SDS011;499;42.648;23.270;2023-01-01T00:47:23;3.30;;;2.53;;
1020;SDS011;499;42.648;23.270;2023-01-01T00:49:50;3.73;;;2.60;;
1020;SDS011;499;42.648;23.270;2023-01-01T00:52:18;2.70;;;2.50;;
1020;SDS011;499;42.648;23.270;2023-01-01T00:54:45;2.80;;;2.60;;
1020;SDS011;499;42.648;23.270;2023-01-01T00:57:13;3.10;;;2.60;;
1020;SDS011;499;42.648;23.270;2023-01-01T00:59:40;2.30;;;1.53;;
1020;SDS011;499;42.648;23.270;2023-01-01T01:02:07;2.67;;;2.47;;
1020;SDS011;499;42.648;23.270;2023-01-01T01:04:34;3.00;;;2.13;;
1020;SDS011;499;42.648;23.270;2023-01-01T01:07:01;2.67;;;2.47;;
1020;SDS011;499;42.648;23.270;2023-01-01T01:09:28;3.50;;;2.43;;
1020;SDS011;499;42.648;23.270;2023-01-01T01:11:56;2.93;;;2.67;;
1020;SDS011;499;42.648;23.270;2023-01-01T01:14:24;3.47;;;2.47;;
1020;SDS011;499;42.648;23.270;2023-01-01T01:16:51;2.97;;;2.40;;
1020;SDS011;499;42.648;23.270;2023-01-01T01:19:18;3.13;;;2.50;;
1020;SDS011;499;42.648;23.270;2023-01-01T01:21:48;2.73;;;2.37;;
1020;SDS011;499;42.648;23.270;2023-01-01T01:24:16;3.20;;;2.90;;
1020;SDS011;499;42.648;23.270;2023-01-01T01:26:43;3.20;;;2.37;;
1020;SDS011;499;42.648;23.270;2023-01-01T01:29:10;2.70;;;2.50;;
1020;SDS011;499;42.648;23.270;2023-01-01T01:31:38;1.27;;;1.17;;
1020;SDS011;499;42.648;23.270;2023-01-01T01:34:05;2.30;;;2.13;;
1020;SDS011;499;42.648;23.270;2023-01-01T01:36:33;2.10;;;1.90;;
1020;SDS011;499;42.648;23.270;2023-01-01T01:39:00;2.90;;;1.90;;
1020;SDS011;499;42.648;23.270;2023-01-01T01:41:27;2.57;;;2.17;;
1020;SDS011;499;42.648;23.270;2023-01-01T01:43:56;2.60;;;2.00;;
1020;SDS011;499;42.648;23.270;2023-01-01T01:46:25;2.60;;;2.33;;
1020;SDS011;499;42.648;23.270;2023-01-01T01:49:01;2.50;;;2.30;;
1020;SDS011;499;42.648;23.270;2023-01-01T01:51:36;1.87;;;1.73;;
1020;SDS011;499;42.648;23.270;2023-01-01T01:54:06;2.07;;;1.90;;
1020;SDS011;499;42.648;23.270;2023-01-01T01:56:37;1.13;;;1.03;;
1020;SDS011;499;42.648;23.270;2023-01-01T01:59:10;1.93;;;1.73;;
1020;SDS011;499;42.648;23.270;2023-01-01T02:01:38;3.17;;;2.60;;
1020;SDS011;499;42.648;23.270;2023-01-01T02:04:07;2.60;;;2.40;;
1020;SDS011;499;42.648;23.270;2023-01-01T02:06:35;2.73;;;1.80;;
1020;SDS011;499;42.648;23.270;2023-01-01T02:09:04;1.83;;;1.73;;
1020;SDS011;499;42.648;23.270;2023-01-01T02:11:32;1.97;;;1.77;;
1020;SDS011;499;42.648;23.270;2023-01-01T02:13:59;1.40;;;1.30;;
1020;SDS011;499;42.648;23.270;2023-01-01T02:16:30;2.90;;;1.93;;
1020;SDS011;499;42.648;23.270;2023-01-01T02:19:05;2.43;;;1.97;;
1020;SDS011;499;42.648;23.270;2023-01-01T02:21:42;2.03;;;1.83;;
1020;SDS011;499;42.648;23.270;2023-01-01T02:24:35;1.87;;;1.70;;
1020;SDS011;499;42.648;23.270;2023-01-01T02:27:19;2.37;;;2.20;;
1020;SDS011;499;42.648;23.270;2023-01-01T02:29:59;3.50;;;3.03;;
1020;SDS011;499;42.648;23.270;2023-01-01T02:32:31;7.47;;;6.63;;
1020;SDS011;499;42.648;23.270;2023-01-01T02:35:03;4.20;;;3.80;;
1020;SDS011;499;42.648;23.270;2023-01-01T02:37:49;3.60;;;3.30;;
1020;SDS011;499;42.648;23.270;2023-01-01T02:40:19;3.27;;;2.67;;
1020;SDS011;499;42.648;23.270;2023-01-01T02:42:50;3.47;;;3.17;;
1020;SDS011;499;42.648;23.270;2023-01-01T02:45:22;2.30;;;2.10;;
1020;SDS011;499;42.648;23.270;2023-01-01T02:47:49;2.57;;;2.37;;
1020;SDS011;499;42.648;23.270;2023-01-01T02:50:18;3.20;;;2.90;;
1020;SDS011;499;42.648;23.270;2023-01-01T02:53:06;2.90;;;1.80;;
1020;SDS011;499;42.648;23.270;2023-01-01T02:55:46;2.53;;;2.13;;
1020;SDS011;499;42.648;23.270;2023-01-01T02:58:22;4.00;;;2.90;;
1020;SDS011;499;42.648;23.270;2023-01-01T03:01:18;1.80;;;1.70;;
1020;SDS011;499;42.648;23.270;2023-01-01T03:03:55;2.33;;;2.13;;
1020;SDS011;499;42.648;23.270;2023-01-01T03:06:28;2.43;;;1.90;;
1020;SDS011;499;42.648;23.270;2023-01-01T03:09:07;1.70;;;1.57;;
1020;SDS011;499;42.648;23.270;2023-01-01T03:11:42;1.60;;;1.50;;
1020;SDS011;499;42.648;23.270;2023-01-01T03:14:18;10.87;;;6.30;;
1020;SDS011;499;42.648;23.270;2023-01-01T03:16:53;8.97;;;6.93;;
1020;SDS011;499;42.648;23.270;2023-01-01T03:19:22;3.73;;;2.33;;
1020;SDS011;499;42.648;23.270;2023-01-01T03:21:53;3.83;;;3.40;;
1020;SDS011;499;42.648;23.270;2023-01-01T03:24:25;15.17;;;10.67;;
1020;SDS011;499;42.648;23.270;2023-01-01T03:26:57;16.53;;;8.17;;
1020;SDS011;499;42.648;23.270;2023-01-01T03:29:28;3.83;;;2.77;;
1020;SDS011;499;42.648;23.270;2023-01-01T03:32:01;1.20;;;1.10;;
1020;SDS011;499;42.648;23.270;2023-01-01T03:34:32;1.03;;;1.03;;
1020;SDS011;499;42.648;23.270;2023-01-01T03:37:03;2.97;;;1.80;;
1020;SDS011;499;42.648;23.270;2023-01-01T03:39:33;2.90;;;2.20;;
1020;SDS011;499;42.648;23.270;2023-01-01T03:42:05;1.60;;;1.50;;
1020;SDS011;499;42.648;23.270;2023-01-01T03:44:40;6.60;;;4.40;;
1020;SDS011;499;42.648;23.270;2023-01-01T03:47:12;5.63;;;3.83;;
1020;SDS011;499;42.648;23.270;2023-01-01T03:49:39;4.37;;;3.90;;
1020;SDS011;499;42.648;23.270;2023-01-01T03:52:11;6.50;;;4.47;;
1020;SDS011;499;42.648;23.270;2023-01-01T03:54:48;5.07;;;2.23;;
1020;SDS011;499;42.648;23.270;2023-01-01T03:57:23;5.43;;;3.43;;
1020;SDS011;499;42.648;23.270;2023-01-01T03:59:56;1.20;;;1.10;;
1020;SDS011;499;42.648;23.270;2023-01-01T04:02:30;2.17;;;2.00;;
1020;SDS011;499;42.648;23.270;2023-01-01T04:05:01;1.73;;;1.63;;
1020;SDS011;499;42.648;23.270;2023-01-01T04:07:31;1.20;;;1.10;;
1020;SDS011;499;42.648;23.270;2023-01-01T04:10:00;2.20;;;2.00;;
1020;SDS011;499;42.648;23.270;2023-01-01T04:12:41;1.00;;;0.90;;
1020;SDS011;499;42.648;23.270;2023-01-01T04:15:09;0.90;;;0.90;;
1020;SDS011;499;42.648;23.270;2023-01-01T04:17:38;2.27;;;2.10;;
1020;SDS011;499;42.648;23.270;2023-01-01T04:20:05;2.60;;;2.03;;
1020;SDS011;499;42.648;23.270;2023-01-01T04:22:33;2.33;;;2.13;;
1020;SDS011;499;42.648;23.270;2023-01-01T04:25:00;2.40;;;2.20;;
1020;SDS011;499;42.648;23.270;2023-01-01T04:27:27;1.00;;;1.00;;
1020;SDS011;499;42.648;23.270;2023-01-01T04:29:54;1.30;;;1.20;;
1020;SDS011;499;42.648;23.270;2023-01-01T04:32:21;3.67;;;2.73;;
1020;SDS011;499;42.648;23.270;2023-01-01T04:34:49;3.43;;;2.97;;
1020;SDS011;499;42.648;23.270;2023-01-01T04:37:16;1.30;;;1.20;;
1020;SDS011;499;42.648;23.270;2023-01-01T04:39:44;2.70;;;2.47;;
1020;SDS011;499;42.648;23.270;2023-01-01T04:42:11;2.70;;;2.50;;
1020;SDS011;499;42.648;23.270;2023-01-01T04:44:38;1.40;;;1.30;;
1020;SDS011;499;42.648;23.270;2023-01-01T04:47:05;0.80;;;0.80;;
1020;SDS011;499;42.648;23.270;2023-01-01T04:49:32;2.37;;;2.17;;
1020;SDS011;499;42.648;23.270;2023-01-01T04:52:01;0.80;;;0.80;;
1020;SDS011;499;42.648;23.270;2023-01-01T04:54:28;1.67;;;1.53;;
1020;SDS011;499;42.648;23.270;2023-01-01T04:56:55;2.77;;;2.30;;
1020;SDS011;499;42.648;23.270;2023-01-01T04:59:22;2.33;;;2.13;;
1020;SDS011;499;42.648;23.270;2023-01-01T05:01:49;1.23;;;1.13;;
1020;SDS011;499;42.648;23.270;2023-01-01T05:04:16;0.90;;;0.90;;
1020;SDS011;499;42.648;23.270;2023-01-01T05:06:43;1.63;;;1.50;;
1020;SDS011;499;42.648;23.270;2023-01-01T05:09:12;2.40;;;2.20;;
1020;SDS011;499;42.648;23.270;2023-01-01T05:11:39;1.10;;;1.00;;
1020;SDS011;499;42.648;23.270;2023-01-01T05:14:06;2.03;;;1.90;;
1020;SDS011;499;42.648;23.270;2023-01-01T05:16:34;1.47;;;1.37;;
1020;SDS011;499;42.648;23.270;2023-01-01T05:19:03;1.70;;;1.60;;
1020;SDS011;499;42.648;23.270;2023-01-01T05:21:32;1.10;;;1.00;;
1020;SDS011;499;42.648;23.270;2023-01-01T05:24:01;1.73;;;1.57;;
1020;SDS011;499;42.648;23.270;2023-01-01T05:26:32;0.90;;;0.90;;
1020;SDS011;499;42.648;23.270;2023-01-01T05:29:00;3.23;;;2.93;;
1020;SDS011;499;42.648;23.270;2023-01-01T05:31:28;2.07;;;1.77;;
1020;SDS011;499;42.648;23.270;2023-01-01T05:33:57;2.60;;;2.40;;
1020;SDS011;499;42.648;23.270;2023-01-01T05:36:24;3.00;;;2.70;;
1020;SDS011;499;42.648;23.270;2023-01-01T05:38:53;2.03;;;1.83;;
1020;SDS011;499;42.648;23.270;2023-01-01T05:41:20;1.10;;;1.00;;
1020;SDS011;499;42.648;23.270;2023-01-01T05:43:50;1.00;;;0.90;;
1020;SDS011;499;42.648;23.270;2023-01-01T05:46:18;1.77;;;1.67;;
1020;SDS011;499;42.648;23.270;2023-01-01T05:48:47;1.47;;;1.37;;
1020;SDS011;499;42.648;23.270;2023-01-01T05:51:15;1.47;;;1.37;;
1020;SDS011;499;42.648;23.270;2023-01-01T05:53:43;0.90;;;0.90;;
1020;SDS011;499;42.648;23.270;2023-01-01T05:56:10;3.27;;;2.50;;
1020;SDS011;499;42.648;23.270;2023-01-01T05:58:38;1.10;;;1.00;;
1020;SDS011;499;42.648;23.270;2023-01-01T06:01:08;3.43;;;3.13;;
1020;SDS011;499;42.648;23.270;2023-01-01T06:03:37;1.20;;;1.10;;
1020;SDS011;499;42.648;23.270;2023-01-01T06:06:05;1.40;;;1.30;;
1020;SDS011;499;42.648;23.270;2023-01-01T06:08:33;1.00;;;0.90;;
1020;SDS011;499;42.648;23.270;2023-01-01T06:11:00;2.70;;;2.30;;
1020;SDS011;499;42.648;23.270;2023-01-01T06:13:30;1.07;;;1.07;;
1020;SDS011;499;42.648;23.270;2023-01-01T06:15:58;6.00;;;4.07;;
1020;SDS011;499;42.648;23.270;2023-01-01T06:18:31;2.30;;;1.50;;
1020;SDS011;499;42.648;23.270;2023-01-01T06:21:03;2.30;;;2.10;;
1020;SDS011;499;42.648;23.270;2023-01-01T06:23:31;2.70;;;2.50;;
1020;SDS011;499;42.648;23.270;2023-01-01T06:26:02;1.67;;;1.57;;
1020;SDS011;499;42.648;23.270;2023-01-01T06:28:31;5.23;;;3.40;;
1020;SDS011;499;42.648;23.270;2023-01-01T06:30:58;1.73;;;1.63;;
1020;SDS011;499;42.648;23.270;2023-01-01T06:33:26;1.63;;;1.53;;
1020;SDS011;499;42.648;23.270;2023-01-01T06:35:55;2.30;;;1.10;;
1020;SDS011;499;42.648;23.270;2023-01-01T06:38:22;5.23;;;4.47;;
1020;SDS011;499;42.648;23.270;2023-01-01T06:40:55;2.13;;;1.93;;
1020;SDS011;499;42.648;23.270;2023-01-01T06:43:23;1.17;;;1.07;;
1020;SDS011;499;42.648;23.270;2023-01-01T06:45:58;1.97;;;1.87;;
1020;SDS011;499;42.648;23.270;2023-01-01T06:48:31;2.23;;;2.07;;
1020;SDS011;499;42.648;23.270;2023-01-01T06:51:03;2.17;;;2.00;;
1020;SDS011;499;42.648;23.270;2023-01-01T06:53:32;3.50;;;2.90;;
1020;SDS011;499;42.648;23.270;2023-01-01T06:55:59;3.13;;;2.83;;
1020;SDS011;499;42.648;23.270;2023-01-01T06:58:26;5.73;;;3.97;;
1020;SDS011;499;42.648;23.270;2023-01-01T07:00:53;4.13;;;3.73;;
1020;SDS011;499;42.648;23.270;2023-01-01T07:03:27;5.47;;;4.80;;
1020;SDS011;499;42.648;23.270;2023-01-01T07:05:56;6.90;;;3.23;;
1020;SDS011;499;42.648;23.270;2023-01-01T07:08:23;5.40;;;4.90;;
1020;SDS011;499;42.648;23.270;2023-01-01T07:10:50;2.60;;;2.10;;
1020;SDS011;499;42.648;23.270;2023-01-01T07:13:17;10.03;;;7.53;;
1020;SDS011;499;42.648;23.270;2023-01-01T07:15:44;8.30;;;7.47;;
1020;SDS011;499;42.648;23.270;2023-01-01T07:18:11;10.17;;;8.83;;
1020;SDS011;499;42.648;23.270;2023-01-01T07:20:38;8.20;;;6.60;;
1020;SDS011;499;42.648;23.270;2023-01-01T07:23:07;5.73;;;4.10;;
1020;SDS011;499;42.648;23.270;2023-01-01T07:25:35;5.87;;;5.27;;
1020;SDS011;499;42.648;23.270;2023-01-01T07:28:05;7.40;;;6.70;;
1020;SDS011;499;42.648;23.270;2023-01-01T07:30:32;7.40;;;6.70;;
1020;SDS011;499;42.648;23.270;2023-01-01T07:32:59;8.70;;;7.77;;
1020;SDS011;499;42.648;23.270;2023-01-01T07:35:26;6.00;;;5.40;;
1020;SDS011;499;42.648;23.270;2023-01-01T07:37:54;10.97;;;7.90;;
1020;SDS011;499;42.648;23.270;2023-01-01T07:40:22;12.00;;;9.83;;
1020;SDS011;499;42.648;23.270;2023-01-01T07:42:49;11.93;;;8.67;;
1020;SDS011;499;42.648;23.270;2023-01-01T07:45:16;13.10;;;7.77;;
1020;SDS011;499;42.648;23.270;2023-01-01T07:47:44;12.00;;;8.43;;
1020;SDS011;499;42.648;23.270;2023-01-01T07:50:14;9.43;;;8.53;;
1020;SDS011;499;42.648;23.270;2023-01-01T07:52:42;11.80;;;10.53;;
1020;SDS011;499;42.648;23.270;2023-01-01T07:55:10;10.30;;;8.43;;
1020;SDS011;499;42.648;23.270;2023-01-01T07:57:40;9.93;;;8.93;;
1020;SDS011;499;42.648;23.270;2023-01-01T08:00:08;17.23;;;12.00;;
1020;SDS011;499;42.648;23.270;2023-01-01T08:02:38;20.73;;;13.30;;
1020;SDS011;499;42.648;23.270;2023-01-01T08:05:05;21.27;;;14.13;;
1020;SDS011;499;42.648;23.270;2023-01-01T08:07:33;20.37;;;16.20;;
1020;SDS011;499;42.648;23.270;2023-01-01T08:10:00;20.30;;;14.60;;
1020;SDS011;499;42.648;23.270;2023-01-01T08:12:27;22.60;;;18.27;;
1020;SDS011;499;42.648;23.270;2023-01-01T08:14:55;18.40;;;13.73;;
1020;SDS011;499;42.648;23.270;2023-01-01T08:17:22;18.50;;;15.53;;
1020;SDS011;499;42.648;23.270;2023-01-01T08:19:49;15.33;;;11.20;;
1020;SDS011;499;42.648;23.270;2023-01-01T08:22:17;18.43;;;14.10;;
1020;SDS011;499;42.648;23.270;2023-01-01T08:24:44;16.90;;;14.43;;
1020;SDS011;499;42.648;23.270;2023-01-01T08:27:11;18.40;;;12.23;;
1020;SDS011;499;42.648;23.270;2023-01-01T08:29:39;18.90;;;12.70;;
1020;SDS011;499;42.648;23.270;2023-01-01T08:32:08;14.23;;;11.97;;
1020;SDS011;499;42.648;23.270;2023-01-01T08:34:35;19.90;;;13.40;;
1020;SDS011;499;42.648;23.270;2023-01-01T08:37:02;13.63;;;11.33;;
1020;SDS011;499;42.648;23.270;2023-01-01T08:39:29;15.43;;;11.60;;
1020;SDS011;499;42.648;23.270;2023-01-01T08:41:56;16.87;;;11.97;;
1020;SDS011;499;42.648;23.270;2023-01-01T08:44:23;14.70;;;12.87;;
1020;SDS011;499;42.648;23.270;2023-01-01T08:46:51;14.80;;;12.60;;
1020;SDS011;499;42.648;23.270;2023-01-01T08:49:19;21.03;;;15.40;;
1020;SDS011;499;42.648;23.270;2023-01-01T08:51:46;21.07;;;14.67;;
1020;SDS011;499;42.648;23.270;2023-01-01T08:54:13;20.73;;;14.83;;
1020;SDS011;499;42.648;23.270;2023-01-01T08:56:40;17.33;;;11.13;;
1020;SDS011;499;42.648;23.270;2023-01-01T08:59:07;17.07;;;13.27;;
1020;SDS011;499;42.648;23.270;2023-01-01T09:01:34;18.17;;;14.80;;
1020;SDS011;499;42.648;23.270;2023-01-01T09:04:01;23.07;;;16.80;;
1020;SDS011;499;42.648;23.270;2023-01-01T09:06:30;19.60;;;15.63;;
1020;SDS011;499;42.648;23.270;2023-01-01T09:08:57;21.73;;;15.27;;
1020;SDS011;499;42.648;23.270;2023-01-01T09:11:25;18.10;;;16.17;;
1020;SDS011;499;42.648;23.270;2023-01-01T09:13:53;17.70;;;14.50;;
1020;SDS011;499;42.648;23.270;2023-01-01T09:16:20;22.40;;;16.93;;
1020;SDS011;499;42.648;23.270;2023-01-01T09:18:47;20.50;;;17.70;;
1020;SDS011;499;42.648;23.270;2023-01-01T09:21:14;20.63;;;17.13;;
1020;SDS011;499;42.648;23.270;2023-01-01T09:23:43;21.27;;;16.53;;
1020;SDS011;499;42.648;23.270;2023-01-01T09:26:10;25.63;;;14.60;;
1020;SDS011;499;42.648;23.270;2023-01-01T09:28:37;18.77;;;14.60;;
1020;SDS011;499;42.648;23.270;2023-01-01T09:31:04;22.00;;;15.77;;
1020;SDS011;499;42.648;23.270;2023-01-01T09:33:31;20.43;;;15.57;;
1020;SDS011;499;42.648;23.270;2023-01-01T09:36:10;18.33;;;13.97;;
1020;SDS011;499;42.648;23.270;2023-01-01T09:38:38;19.10;;;14.97;;
1020;SDS011;499;42.648;23.270;2023-01-01T09:41:09;17.03;;;13.00;;
1020;SDS011;499;42.648;23.270;2023-01-01T09:43:44;19.70;;;14.53;;
1020;SDS011;499;42.648;23.270;2023-01-01T09:46:18;20.33;;;13.43;;
1020;SDS011;499;42.648;23.270;2023-01-01T09:48:46;21.60;;;14.00;;
1020;SDS011;499;42.648;23.270;2023-01-01T09:51:20;18.87;;;13.37;;
1020;SDS011;499;42.648;23.270;2023-01-01T09:53:49;18.80;;;12.40;;
1020;SDS011;499;42.648;23.270;2023-01-01T09:56:22;18.23;;;15.90;;
1020;SDS011;499;42.648;23.270;2023-01-01T09:58:52;24.43;;;14.67;;
1020;SDS011;499;42.648;23.270;2023-01-01T10:01:24;15.90;;;12.60;;
1020;SDS011;499;42.648;23.270;2023-01-01T10:04:09;16.63;;;14.73;;
1020;SDS011;499;42.648;23.270;2023-01-01T10:06:55;20.73;;;13.40;;
1020;SDS011;499;42.648;23.270;2023-01-01T10:09:32;16.17;;;12.13;;
1020;SDS011;499;42.648;23.270;2023-01-01T10:12:11;14.00;;;11.57;;
1020;SDS011;499;42.648;23.270;2023-01-01T10:14:45;20.97;;;16.33;;
1020;SDS011;499;42.648;23.270;2023-01-01T10:17:16;18.80;;;14.07;;
1020;SDS011;499;42.648;23.270;2023-01-01T10:19:46;18.77;;;13.90;;
1020;SDS011;499;42.648;23.270;2023-01-01T10:22:18;20.37;;;15.13;;
1020;SDS011;499;42.648;23.270;2023-01-01T10:24:50;18.07;;;14.53;;
1020;SDS011;499;42.648;23.270;2023-01-01T10:27:26;17.83;;;14.63;;
1020;SDS011;499;42.648;23.270;2023-01-01T10:29:56;20.20;;;14.93;;
1020;SDS011;499;42.648;23.270;2023-01-01T10:32:26;25.83;;;15.10;;
1020;SDS011;499;42.648;23.270;2023-01-01T10:34:55;19.33;;;14.57;;
1020;SDS011;499;42.648;23.270;2023-01-01T10:37:23;21.87;;;16.27;;
1020;SDS011;499;42.648;23.270;2023-01-01T10:39:55;22.43;;;15.80;;
1020;SDS011;499;42.648;23.270;2023-01-01T10:42:22;25.97;;;19.93;;
1020;SDS011;499;42.648;23.270;2023-01-01T10:44:52;21.10;;;16.77;;
1020;SDS011;499;42.648;23.270;2023-01-01T10:47:22;25.27;;;18.23;;
1020;SDS011;499;42.648;23.270;2023-01-01T10:49:54;26.00;;;19.10;;
1020;SDS011;499;42.648;23.270;2023-01-01T10:52:29;20.47;;;16.87;;
1020;SDS011;499;42.648;23.270;2023-01-01T10:54:59;21.70;;;14.73;;
1020;SDS011;499;42.648;23.270;2023-01-01T10:57:30;22.83;;;17.20;;
1020;SDS011;499;42.648;23.270;2023-01-01T11:00:08;26.30;;;17.50;;
1020;SDS011;499;42.648;23.270;2023-01-01T11:02:47;22.23;;;17.23;;
1020;SDS011;499;42.648;23.270;2023-01-01T11:05:30;21.40;;;16.97;;
1020;SDS011;499;42.648;23.270;2023-01-01T11:07:57;25.57;;;20.37;;
1020;SDS011;499;42.648;23.270;2023-01-01T11:10:24;21.77;;;16.27;;
1020;SDS011;499;42.648;23.270;2023-01-01T11:12:54;23.73;;;16.00;;
1020;SDS011;499;42.648;23.270;2023-01-01T11:15:22;29.47;;;18.80;;
1020;SDS011;499;42.648;23.270;2023-01-01T11:18:01;26.83;;;18.23;;
1020;SDS011;499;42.648;23.270;2023-01-01T11:20:30;24.90;;;16.70;;
1020;SDS011;499;42.648;23.270;2023-01-01T11:22:58;22.80;;;16.63;;
1020;SDS011;499;42.648;23.270;2023-01-01T11:25:55;24.47;;;18.10;;
1020;SDS011;499;42.648;23.270;2023-01-01T11:28:28;20.00;;;15.23;;
1020;SDS011;499;42.648;23.270;2023-01-01T11:31:02;22.37;;;16.70;;
1020;SDS011;499;42.648;23.270;2023-01-01T11:33:33;23.77;;;14.20;;
1020;SDS011;499;42.648;23.270;2023-01-01T11:36:03;24.37;;;18.80;;
1020;SDS011;499;42.648;23.270;2023-01-01T11:38:31;21.17;;;16.07;;
1020;SDS011;499;42.648;23.270;2023-01-01T11:41:01;20.50;;;14.27;;
1020;SDS011;499;42.648;23.270;2023-01-01T11:43:32;22.07;;;14.73;;
1020;SDS011;499;42.648;23.270;2023-01-01T11:46:06;22.30;;;16.80;;
1020;SDS011;499;42.648;23.270;2023-01-01T11:48:35;17.13;;;13.50;;
1020;SDS011;499;42.648;23.270;2023-01-01T11:51:06;20.50;;;15.10;;
1020;SDS011;499;42.648;23.270;2023-01-01T11:53:36;19.93;;;14.93;;
1020;SDS011;499;42.648;23.270;2023-01-01T11:56:07;20.80;;;13.33;;
1020;SDS011;499;42.648;23.270;2023-01-01T11:58:43;20.20;;;14.03;;
1020;SDS011;499;42.648;23.270;2023-01-01T12:01:18;16.90;;;13.60;;
1020;SDS011;499;42.648;23.270;2023-01-01T12:03:53;16.20;;;12.40;;
1020;SDS011;499;42.648;23.270;2023-01-01T12:06:24;18.00;;;12.33;;
1020;SDS011;499;42.648;23.270;2023-01-01T12:08:59;17.03;;;10.43;;
1020;SDS011;499;42.648;23.270;2023-01-01T12:11:34;15.07;;;12.10;;
1020;SDS011;499;42.648;23.270;2023-01-01T12:14:12;18.03;;;11.80;;
1020;SDS011;499;42.648;23.270;2023-01-01T12:16:44;11.27;;;8.23;;
1020;SDS011;499;42.648;23.270;2023-01-01T12:19:19;13.80;;;8.97;;
1020;SDS011;499;42.648;23.270;2023-01-01T12:21:49;11.60;;;7.67;;
1020;SDS011;499;42.648;23.270;2023-01-01T12:24:20;8.60;;;6.73;;
1020;SDS011;499;42.648;23.270;2023-01-01T12:26:54;5.70;;;4.97;;
1020;SDS011;499;42.648;23.270;2023-01-01T12:32:38;6.63;;;5.70;;
1020;SDS011;499;42.648;23.270;2023-01-01T12:35:26;6.37;;;4.77;;
1020;SDS011;499;42.648;23.270;2023-01-01T12:38:09;8.07;;;5.27;;
1020;SDS011;499;42.648;23.270;2023-01-01T12:40:49;5.83;;;4.60;;
1020;SDS011;499;42.648;23.270;2023-01-01T12:43:24;3.80;;;2.80;;
1020;SDS011;499;42.648;23.270;2023-01-01T12:49:02;8.93;;;6.20;;
1020;SDS011;499;42.648;23.270;2023-01-01T12:51:40;8.73;;;6.00;;
1020;SDS011;499;42.648;23.270;2023-01-01T12:57:30;22.37;;;11.03;;
1020;SDS011;499;42.648;23.270;2023-01-01T13:00:02;6.90;;;5.80;;
1020;SDS011;499;42.648;23.270;2023-01-01T13:02:38;5.20;;;4.00;;
1020;SDS011;499;42.648;23.270;2023-01-01T13:05:15;4.00;;;3.17;;
1020;SDS011;499;42.648;23.270;2023-01-01T13:07:46;2.30;;;1.97;;
1020;SDS011;499;42.648;23.270;2023-01-01T13:10:18;2.40;;;1.77;;
1020;SDS011;499;42.648;23.270;2023-01-01T13:12:50;1.60;;;1.27;;
1020;SDS011;499;42.648;23.270;2023-01-01T13:15:40;3.70;;;1.70;;
1020;SDS011;499;42.648;23.270;2023-01-01T13:18:20;2.80;;;1.73;;
1020;SDS011;499;42.648;23.270;2023-01-01T13:23:50;3.60;;;2.60;;
1020;SDS011;499;42.648;23.270;2023-01-01T13:26:31;1.77;;;1.37;;
1020;SDS011;499;42.648;23.270;2023-01-01T13:32:05;2.60;;;2.40;;
1020;SDS011;499;42.648;23.270;2023-01-01T13:34:34;5.77;;;4.10;;
1020;SDS011;499;42.648;23.270;2023-01-01T13:43:26;4.80;;;4.40;;
1020;SDS011;499;42.648;23.270;2023-01-01T13:45:55;3.83;;;3.20;;
1020;SDS011;499;42.648;23.270;2023-01-01T13:48:41;2.90;;;2.00;;
1020;SDS011;499;42.648;23.270;2023-01-01T13:51:37;1.50;;;1.40;;
1020;SDS011;499;42.648;23.270;2023-01-01T13:57:36;2.90;;;2.23;;
1020;SDS011;499;42.648;23.270;2023-01-01T14:00:30;4.30;;;3.60;;
1020;SDS011;499;42.648;23.270;2023-01-01T14:03:01;5.10;;;3.80;;
1020;SDS011;499;42.648;23.270;2023-01-01T14:05:33;5.40;;;2.90;;
1020;SDS011;499;42.648;23.270;2023-01-01T14:08:04;5.27;;;3.13;;
1020;SDS011;499;42.648;23.270;2023-01-01T14:10:31;3.20;;;2.60;;
1020;SDS011;499;42.648;23.270;2023-01-01T14:13:01;2.27;;;1.90;;
1020;SDS011;499;42.648;23.270;2023-01-01T14:15:44;2.80;;;2.13;;
1020;SDS011;499;42.648;23.270;2023-01-01T14:18:17;2.30;;;2.10;;
1020;SDS011;499;42.648;23.270;2023-01-01T14:20:48;3.00;;;2.50;;
1020;SDS011;499;42.648;23.270;2023-01-01T14:23:19;3.57;;;1.83;;
1020;SDS011;499;42.648;23.270;2023-01-01T14:25:51;2.20;;;2.00;;
1020;SDS011;499;42.648;23.270;2023-01-01T14:28:20;1.60;;;1.20;;
1020;SDS011;499;42.648;23.270;2023-01-01T14:30:52;3.33;;;2.67;;
1020;SDS011;499;42.648;23.270;2023-01-01T14:33:22;1.63;;;1.30;;
1020;SDS011;499;42.648;23.270;2023-01-01T14:35:50;1.73;;;1.27;;
1020;SDS011;499;42.648;23.270;2023-01-01T14:38:22;2.30;;;1.63;;
1020;SDS011;499;42.648;23.270;2023-01-01T14:41:01;1.40;;;1.30;;
1020;SDS011;499;42.648;23.270;2023-01-01T14:43:34;1.37;;;1.27;;
1020;SDS011;499;42.648;23.270;2023-01-01T14:46:04;2.63;;;1.93;;
1020;SDS011;499;42.648;23.270;2023-01-01T14:48:32;3.20;;;2.13;;
1020;SDS011;499;42.648;23.270;2023-01-01T14:51:00;2.03;;;1.67;;
1020;SDS011;499;42.648;23.270;2023-01-01T14:53:28;2.57;;;1.60;;
1020;SDS011;499;42.648;23.270;2023-01-01T14:55:58;3.27;;;1.80;;
1020;SDS011;499;42.648;23.270;2023-01-01T14:58:27;2.47;;;1.87;;
1020;SDS011;499;42.648;23.270;2023-01-01T15:03:53;1.83;;;1.63;;
1020;SDS011;499;42.648;23.270;2023-01-01T15:06:21;3.20;;;2.10;;
1020;SDS011;499;42.648;23.270;2023-01-01T15:08:50;2.40;;;2.20;;
1020;SDS011;499;42.648;23.270;2023-01-01T15:11:18;2.03;;;1.30;;
1020;SDS011;499;42.648;23.270;2023-01-01T15:13:52;1.57;;;1.47;;
1020;SDS011;499;42.648;23.270;2023-01-01T15:16:22;1.77;;;1.30;;
1020;SDS011;499;42.648;23.270;2023-01-01T15:18:50;1.43;;;1.33;;
1020;SDS011;499;42.648;23.270;2023-01-01T15:21:25;1.50;;;1.40;;
1020;SDS011;499;42.648;23.270;2023-01-01T15:24:01;1.40;;;1.20;;
1020;SDS011;499;42.648;23.270;2023-01-01T15:26:35;9.00;;;4.53;;
1020;SDS011;499;42.648;23.270;2023-01-01T15:29:07;3.40;;;1.77;;
1020;SDS011;499;42.648;23.270;2023-01-01T15:31:38;1.17;;;1.00;;
1020;SDS011;499;42.648;23.270;2023-01-01T15:34:15;0.97;;;0.87;;
1020;SDS011;499;42.648;23.270;2023-01-01T15:36:48;1.07;;;0.97;;
1020;SDS011;499;42.648;23.270;2023-01-01T15:39:16;1.43;;;1.30;;
1020;SDS011;499;42.648;23.270;2023-01-01T15:41:43;1.13;;;1.00;;
1020;SDS011;499;42.648;23.270;2023-01-01T15:44:18;1.60;;;1.20;;
1020;SDS011;499;42.648;23.270;2023-01-01T15:47:01;2.27;;;1.80;;
1020;SDS011;499;42.648;23.270;2023-01-01T15:49:36;3.80;;;2.97;;
1020;SDS011;499;42.648;23.270;2023-01-01T15:52:04;2.50;;;2.20;;
1020;SDS011;499;42.648;23.270;2023-01-01T15:54:43;2.57;;;2.30;;
1020;SDS011;499;42.648;23.270;2023-01-01T15:57:14;2.40;;;2.20;;